Air Navigation Services of Czech Republic
Airport: LKNA Updated:  29.04.2017 07:06:06  UTC
 METAR LKNA 29.04. 07:00 ...
METAR LKNA 290700Z 31012KT CAVOK 05/02 Q1016 NOSIG=
 TAF LKNA 29.04. 05:00 ...
TAF LKNA 290500Z 2906/3006 33010KT 6000 NSC      BECMG 2906/2908 9999 SCT010      BECMG 2908/2910 BKN025      TEMPO 2911/2918 7000 SHRA BKN020      BECMG 2918/2920 VRB02KT SCT040      TEMPO 2921/3006 3000 BR=